sensor_id;sensor_type;location;lat;lon;timestamp;pressure;altitude;pressure_sealevel;temperature;humidity
22930;BME280;11630;42.660;23.292;2023-03-05T00:01:25;68396.00;;;7.81;100.00
22930;BME280;11630;42.660;23.292;2023-03-05T00:03:57;68393.02;;;7.77;100.00
22930;BME280;11630;42.660;23.292;2023-03-05T00:06:28;68398.44;;;7.82;100.00
22930;BME280;11630;42.660;23.292;2023-03-05T00:08:59;68385.44;;;7.75;100.00
22930;BME280;11630;42.660;23.292;2023-03-05T00:11:31;68362.09;;;7.52;100.00
22930;BME280;11630;42.660;23.292;2023-03-05T00:14:03;68368.59;;;7.55;100.00
22930;BME280;11630;42.660;23.292;2023-03-05T00:16:34;68359.39;;;7.49;100.00
22930;BME280;11630;42.660;23.292;2023-03-05T00:19:04;68356.64;;;7.42;100.00
22930;BME280;11630;42.660;23.292;2023-03-05T00:21:36;68359.38;;;7.47;100.00
22930;BME280;11630;42.660;23.292;2023-03-05T00:24:12;68357.22;;;7.47;100.00
22930;BME280;11630;42.660;23.292;2023-03-05T00:26:43;68347.70;;;7.35;100.00
22930;BME280;11630;42.660;23.292;2023-03-05T00:29:15;68356.64;;;7.42;100.00
22930;BME280;11630;42.660;23.292;2023-03-05T00:31:45;68357.77;;;7.50;100.00
22930;BME280;11630;42.660;23.292;2023-03-05T00:34:18;68366.67;;;7.50;100.00
22930;BME280;11630;42.660;23.292;2023-03-05T00:36:49;68362.09;;;7.49;100.00
22930;BME280;11630;42.660;23.292;2023-03-05T00:39:21;68356.94;;;7.43;100.00
22930;BME280;11630;42.660;23.292;2023-03-05T00:41:52;68353.14;;;7.40;100.00
22930;BME280;11630;42.660;23.292;2023-03-05T00:44:23;68356.94;;;7.43;100.00
22930;BME280;11630;42.660;23.292;2023-03-05T00:46:54;68353.68;;;7.43;100.00
22930;BME280;11630;42.660;23.292;2023-03-05T00:49:25;68357.20;;;7.45;100.00
22930;BME280;11630;42.660;23.292;2023-03-05T00:51:56;68365.89;;;7.53;100.00
22930;BME280;11630;42.660;23.292;2023-03-05T00:54:26;68370.77;;;7.55;100.00
22930;BME280;11630;42.660;23.292;2023-03-05T00:56:59;68365.59;;;7.49;100.00
22930;BME280;11630;42.660;23.292;2023-03-05T00:59:30;68341.76;;;7.32;100.00
22930;BME280;11630;42.660;23.292;2023-03-05T01:02:01;68347.43;;;7.33;100.00
22930;BME280;11630;42.660;23.292;2023-03-05T01:04:31;68335.52;;;7.25;100.00
22930;BME280;11630;42.660;23.292;2023-03-05T01:07:03;68329.55;;;7.22;100.00
22930;BME280;11630;42.660;23.292;2023-03-05T01:09:34;68333.91;;;7.26;100.00
22930;BME280;11630;42.660;23.292;2023-03-05T01:12:05;68325.20;;;7.15;100.00
22930;BME280;11630;42.660;23.292;2023-03-05T01:14:36;68324.41;;;7.16;100.00
22930;BME280;11630;42.660;23.292;2023-03-05T01:17:07;68332.52;;;7.21;100.00
22930;BME280;11630;42.660;23.292;2023-03-05T01:19:38;68324.67;;;7.17;100.00
22930;BME280;11630;42.660;23.292;2023-03-05T01:22:09;68319.80;;;7.13;100.00
22930;BME280;11630;42.660;23.292;2023-03-05T01:24:39;68331.46;;;7.22;100.00
22930;BME280;11630;42.660;23.292;2023-03-05T01:27:09;68330.66;;;7.25;100.00
22930;BME280;11630;42.660;23.292;2023-03-05T01:29:40;68321.70;;;7.16;100.00
22930;BME280;11630;42.660;23.292;2023-03-05T01:32:10;68335.52;;;7.25;100.00
22930;BME280;11630;42.660;23.292;2023-03-05T01:34:43;68331.99;;;7.23;100.00
22930;BME280;11630;42.660;23.292;2023-03-05T01:37:13;68318.98;;;7.11;100.00
22930;BME280;11630;42.660;23.292;2023-03-05T01:39:43;68327.38;;;7.20;100.00
22930;BME280;11630;42.660;23.292;2023-03-05T01:42:13;68319.80;;;7.13;100.00
22930;BME280;11630;42.660;23.292;2023-03-05T01:45:00;68332.00;;;7.25;100.00
22930;BME280;11630;42.660;23.292;2023-03-05T01:47:30;68340.41;;;7.32;100.00
22930;BME280;11630;42.660;23.292;2023-03-05T01:50:01;68336.61;;;7.26;100.00
22930;BME280;11630;42.660;23.292;2023-03-05T01:52:34;68333.09;;;7.29;100.00
22930;BME280;11630;42.660;23.292;2023-03-05T01:55:13;68346.91;;;7.38;100.00
22930;BME280;11630;42.660;23.292;2023-03-05T01:57:49;68340.94;;;7.32;100.00
22930;BME280;11630;42.660;23.292;2023-03-05T02:00:16;68322.80;;;7.17;100.00
22930;BME280;11630;42.660;23.292;2023-03-05T02:02:48;68316.28;;;7.11;100.00
22930;BME280;11630;42.660;23.292;2023-03-05T02:05:28;68326.28;;;7.16;100.00
22930;BME280;11630;42.660;23.292;2023-03-05T02:08:17;68322.75;;;7.12;100.00
22930;BME280;11630;42.660;23.292;2023-03-05T02:10:28;68324.95;;;7.19;100.00
22930;BME280;11630;42.660;23.292;2023-03-05T02:13:03;68327.38;;;7.20;100.00
22930;BME280;11630;42.660;23.292;2023-03-05T02:15:34;68324.14;;;7.17;100.00
22930;BME280;11630;42.660;23.292;2023-03-05T02:18:07;68335.80;;;7.29;100.00
22930;BME280;11630;42.660;23.292;2023-03-05T02:20:45;68334.69;;;7.23;100.00
22930;BME280;11630;42.660;23.292;2023-03-05T02:23:17;68322.23;;;7.16;100.00
22930;BME280;11630;42.660;23.292;2023-03-05T02:25:49;68338.23;;;7.27;100.00
22930;BME280;11630;42.660;23.292;2023-03-05T02:28:33;68320.36;;;7.16;100.00
22930;BME280;11630;42.660;23.292;2023-03-05T02:31:10;68327.92;;;7.18;100.00
22930;BME280;11630;42.660;23.292;2023-03-05T02:33:40;68327.11;;;7.18;100.00
22930;BME280;11630;42.660;23.292;2023-03-05T02:36:11;68328.73;;;7.20;100.00
22930;BME280;11630;42.660;23.292;2023-03-05T02:38:43;68334.69;;;7.23;100.00
22930;BME280;11630;42.660;23.292;2023-03-05T02:41:14;68327.38;;;7.17;100.00
22930;BME280;11630;42.660;23.292;2023-03-05T02:43:44;68315.19;;;7.07;100.00
22930;BME280;11630;42.660;23.292;2023-03-05T02:46:14;68309.48;;;7.01;100.00
22930;BME280;11630;42.660;23.292;2023-03-05T02:48:44;68305.17;;;7.02;100.00
22930;BME280;11630;42.660;23.292;2023-03-05T02:51:14;68300.28;;;6.95;100.00
22930;BME280;11630;42.660;23.292;2023-03-05T02:53:44;68305.44;;;7.01;100.00
22930;BME280;11630;42.660;23.292;2023-03-05T02:56:14;68321.39;;;7.09;100.00
22930;BME280;11630;42.660;23.292;2023-03-05T02:58:45;68298.94;;;6.95;100.00
22930;BME280;11630;42.660;23.292;2023-03-05T03:01:16;68294.31;;;6.87;100.00
22930;BME280;11630;42.660;23.292;2023-03-05T03:03:46;68296.20;;;6.90;100.00
22930;BME280;11630;42.660;23.292;2023-03-05T03:06:18;68295.39;;;6.88;100.00
22930;BME280;11630;42.660;23.292;2023-03-05T03:08:50;68288.09;;;6.85;100.00
22930;BME280;11630;42.660;23.292;2023-03-05T03:11:20;68285.63;;;6.79;100.00
22930;BME280;11630;42.660;23.292;2023-03-05T03:13:51;68292.14;;;6.87;100.00
22930;BME280;11630;42.660;23.292;2023-03-05T03:16:21;68289.69;;;6.82;100.00
22930;BME280;11630;42.660;23.292;2023-03-05T03:18:52;68272.63;;;6.67;100.00
22930;BME280;11630;42.660;23.292;2023-03-05T03:21:23;68265.59;;;6.63;100.00
22930;BME280;11630;42.660;23.292;2023-03-05T03:23:55;68261.52;;;6.58;100.00
22930;BME280;11630;42.660;23.292;2023-03-05T03:26:25;68265.84;;;6.60;100.00
22930;BME280;11630;42.660;23.292;2023-03-05T03:28:55;68269.94;;;6.67;100.00
22930;BME280;11630;42.660;23.292;2023-03-05T03:31:26;68276.44;;;6.73;100.00
22930;BME280;11630;42.660;23.292;2023-03-05T03:33:57;68265.56;;;6.58;100.00
22930;BME280;11630;42.660;23.292;2023-03-05T03:36:28;68262.30;;;6.55;100.00
22930;BME280;11630;42.660;23.292;2023-03-05T03:38:59;68263.14;;;6.60;100.00
22930;BME280;11630;42.660;23.292;2023-03-05T03:41:30;68264.77;;;6.61;100.00
22930;BME280;11630;42.660;23.292;2023-03-05T03:44:01;68243.35;;;6.40;100.00
22930;BME280;11630;42.660;23.292;2023-03-05T03:46:31;68246.06;;;6.43;100.00
22930;BME280;11630;42.660;23.292;2023-03-05T03:49:02;68247.16;;;6.46;100.00
22930;BME280;11630;42.660;23.292;2023-03-05T03:51:33;68242.56;;;6.41;100.00
22930;BME280;11630;42.660;23.292;2023-03-05T03:54:03;68249.02;;;6.42;100.00
22930;BME280;11630;42.660;23.292;2023-03-05T03:56:33;68232.25;;;6.31;100.00
22930;BME280;11630;42.660;23.292;2023-03-05T03:59:04;68237.94;;;6.35;100.00
22930;BME280;11630;42.660;23.292;2023-03-05T04:01:34;68240.38;;;6.36;100.00
22930;BME280;11630;42.660;23.292;2023-03-05T04:04:05;68242.56;;;6.43;100.00
22930;BME280;11630;42.660;23.292;2023-03-05T04:06:36;68240.66;;;6.40;100.00
22930;BME280;11630;42.660;23.292;2023-03-05T04:09:06;68243.92;;;6.46;100.00
22930;BME280;11630;42.660;23.292;2023-03-05T04:11:38;68256.89;;;6.50;100.00
22930;BME280;11630;42.660;23.292;2023-03-05T04:14:09;68242.28;;;6.42;100.00
22930;BME280;11630;42.660;23.292;2023-03-05T04:16:39;68234.68;;;6.32;100.00
22930;BME280;11630;42.660;23.292;2023-03-05T04:19:09;68228.47;;;6.30;100.00
22930;BME280;11630;42.660;23.292;2023-03-05T04:21:43;68237.67;;;6.34;100.00
22930;BME280;11630;42.660;23.292;2023-03-05T04:24:15;68222.23;;;6.23;100.00
22930;BME280;11630;42.660;23.292;2023-03-05T04:26:46;68231.44;;;6.29;100.00
22930;BME280;11630;42.660;23.292;2023-03-05T04:29:17;68225.73;;;6.23;100.00
22930;BME280;11630;42.660;23.292;2023-03-05T04:31:47;68227.40;;;6.29;100.00
22930;BME280;11630;42.660;23.292;2023-03-05T04:34:18;68242.00;;;6.40;100.00
22930;BME280;11630;42.660;23.292;2023-03-05T04:36:49;68227.40;;;6.29;100.00
22930;BME280;11630;42.660;23.292;2023-03-05T04:39:18;68233.59;;;6.31;100.00
22930;BME280;11630;42.660;23.292;2023-03-05T04:41:49;68227.91;;;6.25;100.00
22930;BME280;11630;42.660;23.292;2023-03-05T04:44:20;68220.86;;;6.18;100.00
22930;BME280;11630;42.660;23.292;2023-03-05T04:46:52;68224.41;;;6.25;100.00
22930;BME280;11630;42.660;23.292;2023-03-05T04:49:25;68226.55;;;6.22;100.00
22930;BME280;11630;42.660;23.292;2023-03-05T04:51:56;68218.42;;;6.17;100.00
22930;BME280;11630;42.660;23.292;2023-03-05T04:54:27;68221.42;;;6.21;100.00
22930;BME280;11630;42.660;23.292;2023-03-05T04:56:58;68215.99;;;6.16;100.00
22930;BME280;11630;42.660;23.292;2023-03-05T04:59:31;68225.20;;;6.22;100.00
22930;BME280;11630;42.660;23.292;2023-03-05T05:02:02;68223.86;;;6.22;100.00
22930;BME280;11630;42.660;23.292;2023-03-05T05:04:33;68223.31;;;6.24;100.00
22930;BME280;11630;42.660;23.292;2023-03-05T05:07:04;68230.63;;;6.30;100.00
22930;BME280;11630;42.660;23.292;2023-03-05T05:09:34;68227.09;;;6.25;100.00
22930;BME280;11630;42.660;23.292;2023-03-05T05:12:05;68220.34;;;6.23;100.00
22930;BME280;11630;42.660;23.292;2023-03-05T05:14:36;68209.76;;;6.09;100.00
22930;BME280;11630;42.660;23.292;2023-03-05T05:17:07;68220.86;;;6.18;100.00
22930;BME280;11630;42.660;23.292;2023-03-05T05:19:41;68224.38;;;6.20;100.00
22930;BME280;11630;42.660;23.292;2023-03-05T05:22:12;68218.16;;;6.16;100.00
22930;BME280;11630;42.660;23.292;2023-03-05T05:24:43;68225.20;;;6.22;100.00
22930;BME280;11630;42.660;23.292;2023-03-05T05:27:13;68226.58;;;6.27;100.00
22930;BME280;11630;42.660;23.292;2023-03-05T05:29:43;68218.44;;;6.20;100.00
22930;BME280;11630;42.660;23.292;2023-03-05T05:32:13;68232.80;;;6.32;100.00
22930;BME280;11630;42.660;23.292;2023-03-05T05:34:43;68229.81;;;6.30;100.00
22930;BME280;11630;42.660;23.292;2023-03-05T05:37:14;68230.09;;;6.29;100.00
22930;BME280;11630;42.660;23.292;2023-03-05T05:39:45;68229.27;;;6.27;100.00
22930;BME280;11630;42.660;23.292;2023-03-05T05:42:17;68230.89;;;6.29;100.00
22930;BME280;11630;42.660;23.292;2023-03-05T05:44:48;68224.97;;;6.28;100.00
22930;BME280;11630;42.660;23.292;2023-03-05T05:47:18;68230.06;;;6.27;100.00
22930;BME280;11630;42.660;23.292;2023-03-05T05:49:49;68230.90;;;6.31;100.00
22930;BME280;11630;42.660;23.292;2023-03-05T05:52:21;68243.35;;;6.40;100.00
22930;BME280;11630;42.660;23.292;2023-03-05T05:54:50;68237.39;;;6.35;100.00
22930;BME280;11630;42.660;23.292;2023-03-05T05:57:21;68245.00;;;6.44;100.00
22930;BME280;11630;42.660;23.292;2023-03-05T05:59:52;68255.55;;;6.50;100.00
22930;BME280;11630;42.660;23.292;2023-03-05T06:02:23;68246.60;;;6.41;100.00
22930;BME280;11630;42.660;23.292;2023-03-05T06:04:55;68248.23;;;6.47;100.00
22930;BME280;11630;42.660;23.292;2023-03-05T06:07:25;68242.56;;;6.43;100.00
22930;BME280;11630;42.660;23.292;2023-03-05T06:09:56;68243.09;;;6.41;100.00
22930;BME280;11630;42.660;23.292;2023-03-05T06:12:27;68246.35;;;6.44;100.00
22930;BME280;11630;42.660;23.292;2023-03-05T06:14:57;68260.70;;;6.56;100.00
22930;BME280;11630;42.660;23.292;2023-03-05T06:17:28;68264.49;;;6.60;100.00
22930;BME280;11630;42.660;23.292;2023-03-05T06:19:58;68262.61;;;6.59;99.87
22930;BME280;11630;42.660;23.292;2023-03-05T06:22:29;68260.44;;;6.57;98.87
22930;BME280;11630;42.660;23.292;2023-03-05T06:25:00;68258.52;;;6.54;98.89
22930;BME280;11630;42.660;23.292;2023-03-05T06:27:36;68257.73;;;6.57;98.76
22930;BME280;11630;42.660;23.292;2023-03-05T06:30:09;68278.30;;;6.71;98.42
22930;BME280;11630;42.660;23.292;2023-03-05T06:32:39;68263.95;;;6.59;97.27
22930;BME280;11630;42.660;23.292;2023-03-05T06:35:10;68279.67;;;6.76;97.91
22930;BME280;11630;42.660;23.292;2023-03-05T06:37:40;68274.83;;;6.74;96.85
22930;BME280;11630;42.660;23.292;2023-03-05T06:40:13;68285.37;;;6.80;96.29
22930;BME280;11630;42.660;23.292;2023-03-05T06:42:45;68302.44;;;6.97;95.40
22930;BME280;11630;42.660;23.292;2023-03-05T06:45:16;68291.59;;;6.85;93.17
22930;BME280;11630;42.660;23.292;2023-03-05T06:47:47;68309.48;;;7.01;93.06
22930;BME280;11630;42.660;23.292;2023-03-05T06:50:19;68312.20;;;7.06;92.11
22930;BME280;11630;42.660;23.292;2023-03-05T06:52:50;68323.05;;;7.16;91.76
22930;BME280;11630;42.660;23.292;2023-03-05T06:55:20;68359.12;;;7.48;95.83
22930;BME280;11630;42.660;23.292;2023-03-05T06:57:51;68372.92;;;7.57;92.67
22930;BME280;11630;42.660;23.292;2023-03-05T07:00:24;68362.88;;;7.49;89.18
22930;BME280;11630;42.660;23.292;2023-03-05T07:02:59;68394.11;;;7.81;88.03
22930;BME280;11630;42.660;23.292;2023-03-05T07:05:29;68393.30;;;7.81;87.55
22930;BME280;11630;42.660;23.292;2023-03-05T07:08:01;68396.83;;;7.83;86.87
22930;BME280;11630;42.660;23.292;2023-03-05T07:10:35;68414.16;;;7.94;85.34
22930;BME280;11630;42.660;23.292;2023-03-05T07:13:03;68413.35;;;7.92;83.98
22930;BME280;11630;42.660;23.292;2023-03-05T07:15:36;68438.88;;;8.16;83.76
22930;BME280;11630;42.660;23.292;2023-03-05T07:18:05;68428.56;;;8.11;82.99
22930;BME280;11630;42.660;23.292;2023-03-05T07:20:36;68445.97;;;8.32;83.68
22930;BME280;11630;42.660;23.292;2023-03-05T07:23:07;68459.27;;;8.43;81.74
22930;BME280;11630;42.660;23.292;2023-03-05T07:25:38;68425.30;;;8.08;82.91
22930;BME280;11630;42.660;23.292;2023-03-05T07:28:07;68453.81;;;8.33;82.72
22930;BME280;11630;42.660;23.292;2023-03-05T07:30:38;68456.79;;;8.35;83.04
22930;BME280;11630;42.660;23.292;2023-03-05T07:33:08;68467.13;;;8.46;83.00
22930;BME280;11630;42.660;23.292;2023-03-05T07:35:40;68432.61;;;8.11;83.96
22930;BME280;11630;42.660;23.292;2023-03-05T07:38:11;68453.82;;;8.36;84.05
22930;BME280;11630;42.660;23.292;2023-03-05T07:40:41;68427.48;;;8.13;84.03
22930;BME280;11630;42.660;23.292;2023-03-05T07:43:12;68459.23;;;8.38;84.42
22930;BME280;11630;42.660;23.292;2023-03-05T07:45:51;68485.02;;;8.58;84.18
22930;BME280;11630;42.660;23.292;2023-03-05T07:48:23;68499.45;;;8.80;82.84
22930;BME280;11630;42.660;23.292;2023-03-05T07:51:01;68540.17;;;9.15;81.95
22930;BME280;11630;42.660;23.292;2023-03-05T07:53:31;68537.98;;;9.13;81.78
22930;BME280;11630;42.660;23.292;2023-03-05T07:56:02;68590.95;;;9.60;79.58
22930;BME280;11630;42.660;23.292;2023-03-05T07:58:33;68648.34;;;10.11;78.04
22930;BME280;11630;42.660;23.292;2023-03-05T08:01:03;68596.67;;;9.66;78.68
22930;BME280;11630;42.660;23.292;2023-03-05T08:03:33;68589.34;;;9.63;79.32
22930;BME280;11630;42.660;23.292;2023-03-05T08:06:06;68598.56;;;9.67;79.28
22930;BME280;11630;42.660;23.292;2023-03-05T08:08:38;68590.95;;;9.60;79.44
22930;BME280;11630;42.660;23.292;2023-03-05T08:11:11;68526.58;;;9.02;81.97
22930;BME280;11630;42.660;23.292;2023-03-05T08:13:44;68499.45;;;8.80;82.86
22930;BME280;11630;42.660;23.292;2023-03-05T08:16:17;68510.84;;;8.88;82.51
22930;BME280;11630;42.660;23.292;2023-03-05T08:18:47;68498.89;;;8.77;83.50
22930;BME280;11630;42.660;23.292;2023-03-05T08:21:21;68472.02;;;8.53;84.15
22930;BME280;11630;42.660;23.292;2023-03-05T08:23:51;68444.04;;;8.24;86.08
22930;BME280;11630;42.660;23.292;2023-03-05T08:26:24;68484.48;;;8.60;85.94
22930;BME280;11630;42.660;23.292;2023-03-05T08:28:54;68441.33;;;8.19;86.72
22930;BME280;11630;42.660;23.292;2023-03-05T08:31:26;68428.56;;;8.14;87.68
22930;BME280;11630;42.660;23.292;2023-03-05T08:33:59;68454.63;;;8.33;87.83
22930;BME280;11630;42.660;23.292;2023-03-05T08:36:33;68470.67;;;8.53;87.65
22930;BME280;11630;42.660;23.292;2023-03-05T08:39:04;68481.51;;;8.61;90.69
22930;BME280;11630;42.660;23.292;2023-03-05T08:41:36;68488.58;;;8.70;93.04
22930;BME280;11630;42.660;23.292;2023-03-05T08:44:06;68554.81;;;9.25;100.00
22930;BME280;11630;42.660;23.292;2023-03-05T08:46:38;68523.05;;;8.98;89.38
22930;BME280;11630;42.660;23.292;2023-03-05T08:49:09;68513.81;;;8.84;85.95
22930;BME280;11630;42.660;23.292;2023-03-05T08:51:40;68528.50;;;9.08;85.30
22930;BME280;11630;42.660;23.292;2023-03-05T08:54:11;68532.30;;;9.09;85.09
22930;BME280;11630;42.660;23.292;2023-03-05T08:56:41;68541.78;;;9.14;83.86
22930;BME280;11630;42.660;23.292;2023-03-05T08:59:12;68531.74;;;9.08;82.45
22930;BME280;11630;42.660;23.292;2023-03-05T09:01:43;68509.20;;;8.84;79.99
22930;BME280;11630;42.660;23.292;2023-03-05T09:04:13;68556.73;;;9.28;79.09
22930;BME280;11630;42.660;23.292;2023-03-05T09:06:44;68577.63;;;9.44;77.36
22930;BME280;11630;42.660;23.292;2023-03-05T09:09:15;68545.59;;;9.19;77.45
22930;BME280;11630;42.660;23.292;2023-03-05T09:11:45;68524.66;;;8.97;77.12
22930;BME280;11630;42.660;23.292;2023-03-05T09:14:17;68551.30;;;9.23;77.49
22930;BME280;11630;42.660;23.292;2023-03-05T09:16:48;68569.48;;;9.36;75.72
22930;BME280;11630;42.660;23.292;2023-03-05T09:19:19;68542.08;;;9.18;75.02
22930;BME280;11630;42.660;23.292;2023-03-05T09:21:51;68554.55;;;9.26;73.80
22930;BME280;11630;42.660;23.292;2023-03-05T09:24:22;68521.69;;;8.98;73.17
22930;BME280;11630;42.660;23.292;2023-03-05T09:26:53;68522.51;;;8.95;73.00
22930;BME280;11630;42.660;23.292;2023-03-05T09:29:24;68522.52;;;8.97;72.37
22930;BME280;11630;42.660;23.292;2023-03-05T09:31:56;68543.97;;;9.16;72.84
22930;BME280;11630;42.660;23.292;2023-03-05T09:34:26;68592.87;;;9.58;71.67
22930;BME280;11630;42.660;23.292;2023-03-05T09:36:56;68591.25;;;9.61;70.12
22930;BME280;11630;42.660;23.292;2023-03-05T09:39:27;68615.40;;;9.77;70.59
22930;BME280;11630;42.660;23.292;2023-03-05T09:44:44;68555.91;;;9.26;71.14
22930;BME280;11630;42.660;23.292;2023-03-05T09:50:23;68576.57;;;9.48;68.91
22930;BME280;11630;42.660;23.292;2023-03-05T09:52:54;68657.84;;;10.18;68.02
22930;BME280;11630;42.660;23.292;2023-03-05T09:55:38;68735.63;;;10.89;66.53
22930;BME280;11630;42.660;23.292;2023-03-05T09:58:17;68789.23;;;11.40;62.30
22930;BME280;11630;42.660;23.292;2023-03-05T10:00:54;68846.42;;;11.92;59.45
22930;BME280;11630;42.660;23.292;2023-03-05T10:03:34;68935.48;;;12.77;53.54
22930;BME280;11630;42.660;23.292;2023-03-05T10:06:29;68927.88;;;12.62;51.46
22930;BME280;11630;42.660;23.292;2023-03-05T10:09:43;68877.73;;;12.24;52.46
22930;BME280;11630;42.660;23.292;2023-03-05T10:11:53;68849.16;;;11.94;55.78
22930;BME280;11630;42.660;23.292;2023-03-05T10:14:31;68745.42;;;10.98;57.35
22930;BME280;11630;42.660;23.292;2023-03-05T10:17:23;68824.91;;;11.71;55.56
22930;BME280;11630;42.660;23.292;2023-03-05T10:20:21;68763.66;;;11.16;55.55
22930;BME280;11630;42.660;23.292;2023-03-05T10:28:52;68751.95;;;11.04;57.52
22930;BME280;11630;42.660;23.292;2023-03-05T10:40:29;68756.31;;;11.11;56.51
22930;BME280;11630;42.660;23.292;2023-03-05T10:43:18;68705.16;;;10.64;56.06
22930;BME280;11630;42.660;23.292;2023-03-05T10:45:48;68701.36;;;10.63;56.99
22930;BME280;11630;42.660;23.292;2023-03-05T10:50:59;68683.14;;;10.43;56.48
22930;BME280;11630;42.660;23.292;2023-03-05T10:53:33;68680.14;;;10.39;56.62
22930;BME280;11630;42.660;23.292;2023-03-05T10:56:04;68747.05;;;11.02;57.01
22930;BME280;11630;42.660;23.292;2023-03-05T10:58:36;68635.83;;;10.02;57.78
22930;BME280;11630;42.660;23.292;2023-03-05T11:03:58;68655.13;;;10.16;58.02
22930;BME280;11630;42.660;23.292;2023-03-05T11:06:39;68664.92;;;10.30;58.47
22930;BME280;11630;42.660;23.292;2023-03-05T11:09:26;68661.67;;;10.27;57.58
22930;BME280;11630;42.660;23.292;2023-03-05T11:12:23;68663.55;;;10.25;59.14
22930;BME280;11630;42.660;23.292;2023-03-05T11:17:46;68655.14;;;10.21;59.48
22930;BME280;11630;42.660;23.292;2023-03-05T11:20:31;68669.81;;;10.32;59.64
22930;BME280;11630;42.660;23.292;2023-03-05T11:25:54;68619.50;;;9.85;61.68
22930;BME280;11630;42.660;23.292;2023-03-05T11:28:32;68618.67;;;9.85;62.29
22930;BME280;11630;42.660;23.292;2023-03-05T11:33:56;68648.34;;;10.11;62.35
22930;BME280;11630;42.660;23.292;2023-03-05T11:36:34;68640.98;;;10.03;62.85
22930;BME280;11630;42.660;23.292;2023-03-05T11:44:20;68604.02;;;9.74;63.35
22930;BME280;11630;42.660;23.292;2023-03-05T11:49:46;68618.41;;;9.84;63.23
22930;BME280;11630;42.660;23.292;2023-03-05T11:52:25;68641.81;;;10.07;64.13
22930;BME280;11630;42.660;23.292;2023-03-05T11:55:24;68635.30;;;10.04;64.67
22930;BME280;11630;42.660;23.292;2023-03-05T11:57:56;68636.36;;;10.00;63.67
22930;BME280;11630;42.660;23.292;2023-03-05T12:00:28;68618.14;;;9.87;63.42
22930;BME280;11630;42.660;23.292;2023-03-05T12:03:01;68607.52;;;9.71;63.64
22930;BME280;11630;42.660;23.292;2023-03-05T12:05:31;68615.70;;;9.84;63.17
22930;BME280;11630;42.660;23.292;2023-03-05T12:08:04;68647.52;;;10.14;63.07
22930;BME280;11630;42.660;23.292;2023-03-05T12:10:38;68655.68;;;10.21;61.95
22930;BME280;11630;42.660;23.292;2023-03-05T12:13:30;68675.23;;;10.32;60.83
22930;BME280;11630;42.660;23.292;2023-03-05T12:21:41;68657.03;;;10.21;61.19
22930;BME280;11630;42.660;23.292;2023-03-05T12:27:05;68718.77;;;10.74;62.92
22930;BME280;11630;42.660;23.292;2023-03-05T12:35:51;68767.47;;;11.22;62.01
22930;BME280;11630;42.660;23.292;2023-03-05T12:40:26;68747.05;;;11.02;59.28
22930;BME280;11630;42.660;23.292;2023-03-05T12:43:04;68720.13;;;10.76;60.00
22930;BME280;11630;42.660;23.292;2023-03-05T12:45:41;68715.23;;;10.74;60.17
22930;BME280;11630;42.660;23.292;2023-03-05T12:50:46;68728.01;;;10.87;58.98
22930;BME280;11630;42.660;23.292;2023-03-05T12:53:19;68731.28;;;10.90;58.50
22930;BME280;11630;42.660;23.292;2023-03-05T12:56:12;68745.42;;;11.01;58.32
22930;BME280;11630;42.660;23.292;2023-03-05T12:58:43;68722.57;;;10.77;57.90
22930;BME280;11630;42.660;23.292;2023-03-05T13:01:34;68727.73;;;10.83;57.57
22930;BME280;11630;42.660;23.292;2023-03-05T13:04:50;68734.55;;;10.91;57.33
22930;BME280;11630;42.660;23.292;2023-03-05T13:06:42;68693.47;;;10.55;57.86
22930;BME280;11630;42.660;23.292;2023-03-05T13:09:27;68701.89;;;10.59;58.91
22930;BME280;11630;42.660;23.292;2023-03-05T13:11:54;68729.09;;;10.88;58.10
22930;BME280;11630;42.660;23.292;2023-03-05T13:14:43;68700.27;;;10.60;58.79
22930;BME280;11630;42.660;23.292;2023-03-05T13:19:56;68656.50;;;10.23;59.34
22930;BME280;11630;42.660;23.292;2023-03-05T13:22:27;68667.36;;;10.26;59.25
22930;BME280;11630;42.660;23.292;2023-03-05T13:25:15;68642.91;;;10.06;59.49
22930;BME280;11630;42.660;23.292;2023-03-05T13:27:45;68657.57;;;10.19;58.74
22930;BME280;11630;42.660;23.292;2023-03-05T13:30:24;68658.13;;;10.20;58.90
22930;BME280;11630;42.660;23.292;2023-03-05T13:32:59;68668.45;;;10.27;60.00
22930;BME280;11630;42.660;23.292;2023-03-05T13:35:31;68642.62;;;10.07;59.61
22930;BME280;11630;42.660;23.292;2023-03-05T13:38:01;68624.39;;;9.89;59.63
22930;BME280;11630;42.660;23.292;2023-03-05T13:40:32;68654.33;;;10.19;59.41
22930;BME280;11630;42.660;23.292;2023-03-05T13:43:14;68673.62;;;10.35;59.51
22930;BME280;11630;42.660;23.292;2023-03-05T13:45:46;68657.03;;;10.19;59.21
22930;BME280;11630;42.660;23.292;2023-03-05T13:48:18;68657.57;;;10.22;59.39
22930;BME280;11630;42.660;23.292;2023-03-05T13:50:55;68689.94;;;10.53;59.16
22930;BME280;11630;42.660;23.292;2023-03-05T13:53:31;68647.24;;;10.07;58.75
22930;BME280;11630;42.660;23.292;2023-03-05T13:56:06;68628.22;;;9.97;59.33
22930;BME280;11630;42.660;23.292;2023-03-05T13:58:51;68651.58;;;10.14;59.63
22930;BME280;11630;42.660;23.292;2023-03-05T14:01:29;68659.75;;;10.19;59.77
22930;BME280;11630;42.660;23.292;2023-03-05T14:06:39;68658.39;;;10.21;59.16
22930;BME280;11630;42.660;23.292;2023-03-05T14:09:19;68638.28;;;10.03;58.80
22930;BME280;11630;42.660;23.292;2023-03-05T14:11:59;68611.89;;;9.78;60.11
22930;BME280;11630;42.660;23.292;2023-03-05T14:14:33;68590.72;;;9.66;60.69
22930;BME280;11630;42.660;23.292;2023-03-05T14:20:24;68646.15;;;10.04;61.13
22930;BME280;11630;42.660;23.292;2023-03-05T14:23:01;68614.87;;;9.79;60.27
22930;BME280;11630;42.660;23.292;2023-03-05T14:25:37;68607.55;;;9.76;60.36
22930;BME280;11630;42.660;23.292;2023-03-05T14:28:26;68613.52;;;9.79;60.79
22930;BME280;11630;42.660;23.292;2023-03-05T14:30:56;68596.67;;;9.61;60.62
22930;BME280;11630;42.660;23.292;2023-03-05T14:33:29;68567.88;;;9.42;61.25